Smit Clyde — CFG7577 — position and weather

sailwx.info

Track history (hours):
 
Tides and Currents Weather Stations Pressure Air Temp Water Temp Dewpoint Dewpoint Depression Visibility Wind Speed Wind Dir Waves Ship Positions

Smit Clyde

Last reported at 2014-Jul-22 23:24 UTC. Time now 2014-Jul-22 23:40 UTC.
Position N 54°17' W 130°22'.

Length 28 m; draft 6 m.

Type: Towing. MMSI: 316011473.

Date/timePositionNaut miles runAvg speedWind from/ knotsBaromVisibWave heightAir tempDewpointWater temp
2014-Jul-22 23:24N 54°17' W 130°22'0 0.3
2014-Jul-22 22:33N 54°17' W 130°22'0 0.1
2014-Jul-22 21:33N 54°17' W 130°22'0 0.4
2014-Jul-22 20:33N 54°18' W 130°21'0 0.0
2014-Jul-22 19:33N 54°18' W 130°21'0 0.0
2014-Jul-22 18:33N 54°18' W 130°21'0 0.0
2014-Jul-22 17:33N 54°18' W 130°21'0 0.0
2014-Jul-22 16:33N 54°18' W 130°21'0 0.0
2014-Jul-22 15:33N 54°18' W 130°21'1 0.7
2014-Jul-22 14:33N 54°17' W 130°22'3 2.5
2014-Jul-22 13:13N 54°14' W 130°21'1 1.5
2014-Jul-22 12:33N 54°13' W 130°21'1 0.5
2014-Jul-22 10:33N 54°14' W 130°20'4 4.0
2014-Jul-22 09:33N 54°18' W 130°21'0 0.0
2014-Jul-22 08:33N 54°18' W 130°21'0 0.0
2014-Jul-22 07:33N 54°18' W 130°21'0 0.0
2014-Jul-22 06:33N 54°18' W 130°21'0 0.0
2014-Jul-22 05:33N 54°18' W 130°21'0 0.0
2014-Jul-22 04:33N 54°18' W 130°21'0 0.0
2014-Jul-22 03:33N 54°18' W 130°21'0 0.0
2014-Jul-22 02:33N 54°18' W 130°21'0 0.0
2014-Jul-22 01:33N 54°18' W 130°21'0 0.0
2014-Jul-22 00:33N 54°18' W 130°21'0 0.0
2014-Jul-21 23:33N 54°18' W 130°21'0 0.0
2014-Jul-21 22:33N 54°18' W 130°21'0 0.0
2014-Jul-21 21:33N 54°18' W 130°21'0 0.0
2014-Jul-21 20:33N 54°18' W 130°21'0 0.0
2014-Jul-21 20:18N 54°18' W 130°21'0 0.0
2014-Jul-21 19:33N 54°18' W 130°21'0 0.0
2014-Jul-21 18:33N 54°18' W 130°21'0 0.1
2014-Jul-21 17:33N 54°18' W 130°21'0 0.4
2014-Jul-21 16:33N 54°18' W 130°22'6 4.5
2014-Jul-21 15:17N 54°12' W 130°21'0 0.1
2014-Jul-21 14:10N 54°12' W 130°21'5 7.5
2014-Jul-21 13:33N 54°17' W 130°22'1 1.0
2014-Jul-21 12:33N 54°18' W 130°21'0 0.0
2014-Jul-21 11:33N 54°18' W 130°21'0 0.0
2014-Jul-21 10:33N 54°18' W 130°21'0 0.0
2014-Jul-21 09:33N 54°18' W 130°21'0 0.0
2014-Jul-21 08:33N 54°18' W 130°21'0 0.0
2014-Jul-21 07:33N 54°18' W 130°21'0 0.0
2014-Jul-21 06:33N 54°18' W 130°21'0 0.0
2014-Jul-21 05:33N 54°18' W 130°21'0 0.0
2014-Jul-21 04:33N 54°18' W 130°21'0 0.0
2014-Jul-21 03:33N 54°18' W 130°21'5 1.5
2014-Jul-21 00:33N 54°13' W 130°21'1 0.8
2014-Jul-20 23:31N 54°14' W 130°21'4 4.1
2014-Jul-20 22:33N 54°18' W 130°21'0 0.0
2014-Jul-20 21:33N 54°18' W 130°21'0 0.0
2014-Jul-20 20:33N 54°18' W 130°21'0 0.0
2014-Jul-20 19:18N 54°18' W 130°21'0 0.0
2014-Jul-20 18:33N 54°18' W 130°21'0 0.0
2014-Jul-20 17:33N 54°18' W 130°21'0 0.0
2014-Jul-20 16:33N 54°18' W 130°21'0 0.0
2014-Jul-20 15:33N 54°18' W 130°21'0 0.0
2014-Jul-20 14:33N 54°18' W 130°21'0 0.0
2014-Jul-20 13:33N 54°18' W 130°21'0 0.0
2014-Jul-20 12:33N 54°18' W 130°21'0 0.0
2014-Jul-20 11:33N 54°18' W 130°21'0 0.0
2014-Jul-20 10:33N 54°18' W 130°21'0 0.0
2014-Jul-20 09:33N 54°18' W 130°21'0 0.0
2014-Jul-20 08:33N 54°18' W 130°21'3 2.8
2014-Jul-20 07:33N 54°15' W 130°21'3 2.6
2014-Jul-20 06:33N 54°17' W 130°22'0 0.4
2014-Jul-20 05:33N 54°18' W 130°22'0 0.2
2014-Jul-20 04:33N 54°18' W 130°21'0 0.0
2014-Jul-20 03:33N 54°18' W 130°21'0 0.0
2014-Jul-20 02:33N 54°18' W 130°21'0 0.0
2014-Jul-20 01:33N 54°18' W 130°21'0 0.0
2014-Jul-20 00:33N 54°18' W 130°21'0 0.0
2014-Jul-19 23:33N 54°18' W 130°21'0 0.0
2014-Jul-19 22:33N 54°18' W 130°21'0 0.0
2014-Jul-19 21:33N 54°18' W 130°21'0 0.0
2014-Jul-19 20:33N 54°18' W 130°21'0 0.0
2014-Jul-19 19:33N 54°18' W 130°21'0 0.0
2014-Jul-19 18:33N 54°18' W 130°21'0 0.0
2014-Jul-19 17:33N 54°18' W 130°21'0 0.0
2014-Jul-19 16:33N 54°18' W 130°21'0 0.0
2014-Jul-19 15:33N 54°18' W 130°21'0 0.0
2014-Jul-19 14:33N 54°18' W 130°21'0 0.0
2014-Jul-19 13:33N 54°18' W 130°21'0 0.0
2014-Jul-19 12:33N 54°18' W 130°21'0 0.0
2014-Jul-19 11:33N 54°18' W 130°21'0 0.0
2014-Jul-19 10:33N 54°18' W 130°21'0 0.0
2014-Jul-19 09:33N 54°18' W 130°21'0 0.0
2014-Jul-19 08:33N 54°18' W 130°21'0 0.0
2014-Jul-19 07:33N 54°18' W 130°21'0 0.0
2014-Jul-19 06:33N 54°18' W 130°21'0 0.0
2014-Jul-19 05:33N 54°18' W 130°21'0 0.0
2014-Jul-19 04:33N 54°18' W 130°21'0 0.0
2014-Jul-19 03:33N 54°18' W 130°21'0 0.0
2014-Jul-19 02:33N 54°18' W 130°21'1 0.7
2014-Jul-19 00:33N 54°16' W 130°22'1 1.4
2014-Jul-18 23:33N 54°18' W 130°21'0 0.0
2014-Jul-18 22:33N 54°18' W 130°21'0 0.0
2014-Jul-18 21:33N 54°18' W 130°21'0 0.0
2014-Jul-18 20:33N 54°18' W 130°21'0 0.0
2014-Jul-18 19:33N 54°18' W 130°21'0 0.0
2014-Jul-18 18:33N 54°18' W 130°21'0 0.0
2014-Jul-18 17:33N 54°18' W 130°21'0 0.0
2014-Jul-18 16:33N 54°18' W 130°21'0 0.0
2014-Jul-18 15:33N 54°18' W 130°21'0 0.0
2014-Jul-18 14:33N 54°18' W 130°21'0 0.0
2014-Jul-18 13:33N 54°18' W 130°21'0 0.0
2014-Jul-18 12:33N 54°18' W 130°21'0 0.0
2014-Jul-18 11:33N 54°18' W 130°21'0 0.0
2014-Jul-18 10:33N 54°18' W 130°21'0 0.0
2014-Jul-18 09:33N 54°18' W 130°21'0 0.0
2014-Jul-18 08:33N 54°18' W 130°21'0 0.0
2014-Jul-18 07:33N 54°18' W 130°21'0 0.0
2014-Jul-18 06:33N 54°18' W 130°21'0 0.0
2014-Jul-18 05:33N 54°18' W 130°21'0 0.0
2014-Jul-18 04:33N 54°18' W 130°21'0 0.0
2014-Jul-18 03:33N 54°18' W 130°21'0 0.0
2014-Jul-18 02:33N 54°18' W 130°21'0 0.0
2014-Jul-18 01:33N 54°18' W 130°21'0 0.0
2014-Jul-18 00:33N 54°18' W 130°21'0 0.0
2014-Jul-17 23:33N 54°18' W 130°21'0 0.0
2014-Jul-17 22:33N 54°18' W 130°21'0 0.0
2014-Jul-17 21:33N 54°18' W 130°21'0 0.0
2014-Jul-17 20:33N 54°18' W 130°21'0 0.0
2014-Jul-17 19:33N 54°18' W 130°21'0 0.0
2014-Jul-17 18:33N 54°18' W 130°21'0 0.0
2014-Jul-17 17:33N 54°18' W 130°21'0 0.0
2014-Jul-17 16:33N 54°18' W 130°21'0 0.0
2014-Jul-17 15:33N 54°18' W 130°21'0 0.0
2014-Jul-17 14:33N 54°18' W 130°21'0 0.0
2014-Jul-17 13:33N 54°18' W 130°21'0 0.0
2014-Jul-17 12:33N 54°18' W 130°21'0 0.0
2014-Jul-17 11:33N 54°18' W 130°21'0 0.0
2014-Jul-17 10:33N 54°18' W 130°21'0 0.0
2014-Jul-17 09:33N 54°18' W 130°21'0 0.0
2014-Jul-17 08:33N 54°18' W 130°21'0 0.0
2014-Jul-17 07:33N 54°18' W 130°21'0 0.0
2014-Jul-17 06:33N 54°18' W 130°21'0 0.0
2014-Jul-17 05:33N 54°18' W 130°21'0 0.0
2014-Jul-17 04:33N 54°18' W 130°21'4 2.0
2014-Jul-17 02:27N 54°13' W 130°21'2 0.6
2014-Jul-16 23:25N 54°15' W 130°21'2 2.7
2014-Jul-16 22:33N 54°18' W 130°21'0 0.0
2014-Jul-16 21:33N 54°18' W 130°21'0 0.0
2014-Jul-16 20:33N 54°18' W 130°21'0 0.0
2014-Jul-16 19:33N 54°18' W 130°21'0 0.0
2014-Jul-16 18:33N 54°18' W 130°21'0 0.0
2014-Jul-16 17:33N 54°18' W 130°21'0 0.0
2014-Jul-16 16:33N 54°18' W 130°21'0 0.0
2014-Jul-16 15:33N 54°18' W 130°21'0 0.0
2014-Jul-16 14:33N 54°18' W 130°21'0 0.0
2014-Jul-16 13:33N 54°18' W 130°21'0 0.0
2014-Jul-16 12:33N 54°18' W 130°21'0 0.0
2014-Jul-16 11:33N 54°18' W 130°21'0 0.0
2014-Jul-16 10:33N 54°18' W 130°21'0 0.0
2014-Jul-16 09:33N 54°18' W 130°21'0 0.0
2014-Jul-16 08:33N 54°18' W 130°21'0 0.0
2014-Jul-16 07:33N 54°18' W 130°21'0 0.0
2014-Jul-16 06:33N 54°18' W 130°21'0 0.0
2014-Jul-16 05:33N 54°18' W 130°21'0 0.0
2014-Jul-16 03:33N 54°18' W 130°21'0 0.0
2014-Jul-16 02:33N 54°18' W 130°21'0 0.0
2014-Jul-16 01:33N 54°18' W 130°21'0 0.0
2014-Jul-16 00:33N 54°18' W 130°21'0 0.0
2014-Jul-15 23:33N 54°18' W 130°21'0 0.0
2014-Jul-15 22:33N 54°18' W 130°21'0 0.0
2014-Jul-15 21:33N 54°18' W 130°21'0 0.0
2014-Jul-15 20:33N 54°18' W 130°21'0 0.0
2014-Jul-15 19:33N 54°18' W 130°21'0 0.0
2014-Jul-15 18:33N 54°18' W 130°21'0 0.0
2014-Jul-15 17:33N 54°18' W 130°21'0 0.0
2014-Jul-15 16:33N 54°18' W 130°21'0 0.0
2014-Jul-15 15:33N 54°18' W 130°21'0 0.0
2014-Jul-15 14:33N 54°18' W 130°21'0 0.0
2014-Jul-15 13:33N 54°18' W 130°21'4 3.4
2014-Jul-15 12:15N 54°13' W 130°24'4 5.2
2014-Jul-15 11:25N 54°12' W 130°31'8 2.0
2014-Jul-15 07:33N 54°18' W 130°21'0 0.0
2014-Jul-15 06:33N 54°18' W 130°21'2 1.6
2014-Jul-15 05:33N 54°16' W 130°22'1 0.2
2014-Jul-15 02:26N 54°15' W 130°21'2 2.5
2014-Jul-15 01:33N 54°18' W 130°21'0 0.0
2014-Jul-15 00:33N 54°18' W 130°21'0 0.0
2014-Jul-14 23:34N 54°18' W 130°21'0 0.0
2014-Jul-14 22:33N 54°18' W 130°21'0 0.0
2014-Jul-14 21:33N 54°18' W 130°21'0 0.0
2014-Jul-14 20:33N 54°18' W 130°21'0 0.0
2014-Jul-14 19:33N 54°18' W 130°21'0 0.0
2014-Jul-14 18:33N 54°18' W 130°21'0 0.0
2014-Jul-14 17:34N 54°18' W 130°21'0 0.1
2014-Jul-14 16:33N 54°18' W 130°21'2 1.9
2014-Jul-14 15:23N 54°15' W 130°21'2 2.2
2014-Jul-14 14:33N 54°17' W 130°22'0 0.3
2014-Jul-14 13:33N 54°18' W 130°21'0 0.0
2014-Jul-14 12:33N 54°18' W 130°21'0 0.0
2014-Jul-14 11:33N 54°18' W 130°21'0 0.0
2014-Jul-14 10:33N 54°18' W 130°21'0 0.0
2014-Jul-14 09:33N 54°18' W 130°21'0 0.0
2014-Jul-14 08:33N 54°18' W 130°21'0 0.0
2014-Jul-14 07:33N 54°18' W 130°21'0 0.0
2014-Jul-14 06:33N 54°18' W 130°21'0 0.0
2014-Jul-14 05:33N 54°18' W 130°21'0 0.0
2014-Jul-14 04:33N 54°18' W 130°21'0 0.0
2014-Jul-14 03:34N 54°18' W 130°21'0 0.0
2014-Jul-14 02:33N 54°18' W 130°21'0 0.0
2014-Jul-14 01:34N 54°18' W 130°21'0 0.0
2014-Jul-14 00:33N 54°18' W 130°21'0 0.0
2014-Jul-13 23:33N 54°18' W 130°21'0 0.0
2014-Jul-13 22:33N 54°18' W 130°21'0 0.0
2014-Jul-13 21:33N 54°18' W 130°21'0 0.0
2014-Jul-13 20:33N 54°18' W 130°21'0 0.0
2014-Jul-13 19:33N 54°18' W 130°21'0 0.0
2014-Jul-13 18:33N 54°18' W 130°21'0 0.0
2014-Jul-13 17:34N 54°18' W 130°21'1 0.6
2014-Jul-13 16:33N 54°17' W 130°22'0 0.2
2014-Jul-13 15:33N 54°17' W 130°22'0 0.3
2014-Jul-13 14:33N 54°18' W 130°22'0 0.2
2014-Jul-13 13:33N 54°18' W 130°21'0 0.0
2014-Jul-13 12:33N 54°18' W 130°21'0 0.0
2014-Jul-13 11:33N 54°18' W 130°21'0 0.0
2014-Jul-13 10:34N 54°18' W 130°21'0 0.0
2014-Jul-13 09:33N 54°18' W 130°21'0 0.0
2014-Jul-13 08:33N 54°18' W 130°21'0 0.0
2014-Jul-13 07:33N 54°18' W 130°21'0 0.0
2014-Jul-13 06:33N 54°18' W 130°21'0 0.0
2014-Jul-13 05:34N 54°18' W 130°21'0 0.0
2014-Jul-13 04:33N 54°18' W 130°21'0 0.0
2014-Jul-13 03:33N 54°18' W 130°21'0 0.0
2014-Jul-13 02:33N 54°18' W 130°21'0 0.0
2014-Jul-13 01:33N 54°18' W 130°21'0 0.0
2014-Jul-13 00:33N 54°18' W 130°21'0 0.0
2014-Jul-12 23:33N 54°18' W 130°21'0 0.0
2014-Jul-12 22:34N 54°18' W 130°21'  
Track history (hours):
 
Tides and Currents Weather Stations Pressure Air Temp Water Temp Dewpoint Dewpoint Depression Visibility Wind Speed Wind Dir Waves Ship Positions

Smit Clyde

Last reported at 2014-Jul-22 23:24 UTC. Time now 2014-Jul-22 23:40 UTC.
Position N 54°17' W 130°22'.

Length 28 m; draft 6 m.

Type: Towing. MMSI: 316011473.

Date/timePositionNaut miles runAvg speedWind from/ knotsBaromVisibWave heightAir tempDewpointWater temp
2014-Jul-22 23:24N 54°17' W 130°22'0 0.3
2014-Jul-22 22:33N 54°17' W 130°22'0 0.1
2014-Jul-22 21:33N 54°17' W 130°22'0 0.4
2014-Jul-22 20:33N 54°18' W 130°21'0 0.0
2014-Jul-22 19:33N 54°18' W 130°21'0 0.0
2014-Jul-22 18:33N 54°18' W 130°21'0 0.0
2014-Jul-22 17:33N 54°18' W 130°21'0 0.0
2014-Jul-22 16:33N 54°18' W 130°21'0 0.0
2014-Jul-22 15:33N 54°18' W 130°21'1 0.7
2014-Jul-22 14:33N 54°17' W 130°22'3 2.5
2014-Jul-22 13:13N 54°14' W 130°21'1 1.5
2014-Jul-22 12:33N 54°13' W 130°21'1 0.5
2014-Jul-22 10:33N 54°14' W 130°20'4 4.0
2014-Jul-22 09:33N 54°18' W 130°21'0 0.0
2014-Jul-22 08:33N 54°18' W 130°21'0 0.0
2014-Jul-22 07:33N 54°18' W 130°21'0 0.0
2014-Jul-22 06:33N 54°18' W 130°21'0 0.0
2014-Jul-22 05:33N 54°18' W 130°21'0 0.0
2014-Jul-22 04:33N 54°18' W 130°21'0 0.0
2014-Jul-22 03:33N 54°18' W 130°21'0 0.0
2014-Jul-22 02:33N 54°18' W 130°21'0 0.0
2014-Jul-22 01:33N 54°18' W 130°21'0 0.0
2014-Jul-22 00:33N 54°18' W 130°21'0 0.0
2014-Jul-21 23:33N 54°18' W 130°21'0 0.0
2014-Jul-21 22:33N 54°18' W 130°21'0 0.0
2014-Jul-21 21:33N 54°18' W 130°21'0 0.0
2014-Jul-21 20:33N 54°18' W 130°21'0 0.0
2014-Jul-21 20:18N 54°18' W 130°21'0 0.0
2014-Jul-21 19:33N 54°18' W 130°21'0 0.0
2014-Jul-21 18:33N 54°18' W 130°21'0 0.1
2014-Jul-21 17:33N 54°18' W 130°21'0 0.4
2014-Jul-21 16:33N 54°18' W 130°22'6 4.5
2014-Jul-21 15:17N 54°12' W 130°21'0 0.1
2014-Jul-21 14:10N 54°12' W 130°21'5 7.5
2014-Jul-21 13:33N 54°17' W 130°22'1 1.0
2014-Jul-21 12:33N 54°18' W 130°21'0 0.0
2014-Jul-21 11:33N 54°18' W 130°21'0 0.0
2014-Jul-21 10:33N 54°18' W 130°21'0 0.0
2014-Jul-21 09:33N 54°18' W 130°21'0 0.0
2014-Jul-21 08:33N 54°18' W 130°21'0 0.0
2014-Jul-21 07:33N 54°18' W 130°21'0 0.0
2014-Jul-21 06:33N 54°18' W 130°21'0 0.0
2014-Jul-21 05:33N 54°18' W 130°21'0 0.0
2014-Jul-21 04:33N 54°18' W 130°21'0 0.0
2014-Jul-21 03:33N 54°18' W 130°21'5 1.5
2014-Jul-21 00:33N 54°13' W 130°21'1 0.8
2014-Jul-20 23:31N 54°14' W 130°21'4 4.1
2014-Jul-20 22:33N 54°18' W 130°21'0 0.0
2014-Jul-20 21:33N 54°18' W 130°21'0 0.0
2014-Jul-20 20:33N 54°18' W 130°21'0 0.0
2014-Jul-20 19:18N 54°18' W 130°21'0 0.0
2014-Jul-20 18:33N 54°18' W 130°21'0 0.0
2014-Jul-20 17:33N 54°18' W 130°21'0 0.0
2014-Jul-20 16:33N 54°18' W 130°21'0 0.0
2014-Jul-20 15:33N 54°18' W 130°21'0 0.0
2014-Jul-20 14:33N 54°18' W 130°21'0 0.0
2014-Jul-20 13:33N 54°18' W 130°21'0 0.0
2014-Jul-20 12:33N 54°18' W 130°21'0 0.0
2014-Jul-20 11:33N 54°18' W 130°21'0 0.0
2014-Jul-20 10:33N 54°18' W 130°21'0 0.0
2014-Jul-20 09:33N 54°18' W 130°21'0 0.0
2014-Jul-20 08:33N 54°18' W 130°21'3 2.8
2014-Jul-20 07:33N 54°15' W 130°21'3 2.6
2014-Jul-20 06:33N 54°17' W 130°22'0 0.4
2014-Jul-20 05:33N 54°18' W 130°22'0 0.2
2014-Jul-20 04:33N 54°18' W 130°21'0 0.0
2014-Jul-20 03:33N 54°18' W 130°21'0 0.0
2014-Jul-20 02:33N 54°18' W 130°21'0 0.0
2014-Jul-20 01:33N 54°18' W 130°21'0 0.0
2014-Jul-20 00:33N 54°18' W 130°21'0 0.0
2014-Jul-19 23:33N 54°18' W 130°21'0 0.0
2014-Jul-19 22:33N 54°18' W 130°21'0 0.0
2014-Jul-19 21:33N 54°18' W 130°21'0 0.0
2014-Jul-19 20:33N 54°18' W 130°21'0 0.0
2014-Jul-19 19:33N 54°18' W 130°21'0 0.0
2014-Jul-19 18:33N 54°18' W 130°21'0 0.0
2014-Jul-19 17:33N 54°18' W 130°21'0 0.0
2014-Jul-19 16:33N 54°18' W 130°21'0 0.0
2014-Jul-19 15:33N 54°18' W 130°21'0 0.0
2014-Jul-19 14:33N 54°18' W 130°21'0 0.0
2014-Jul-19 13:33N 54°18' W 130°21'0 0.0
2014-Jul-19 12:33N 54°18' W 130°21'0 0.0
2014-Jul-19 11:33N 54°18' W 130°21'0 0.0
2014-Jul-19 10:33N 54°18' W 130°21'0 0.0
2014-Jul-19 09:33N 54°18' W 130°21'0 0.0
2014-Jul-19 08:33N 54°18' W 130°21'0 0.0
2014-Jul-19 07:33N 54°18' W 130°21'0 0.0
2014-Jul-19 06:33N 54°18' W 130°21'0 0.0
2014-Jul-19 05:33N 54°18' W 130°21'0 0.0
2014-Jul-19 04:33N 54°18' W 130°21'0 0.0
2014-Jul-19 03:33N 54°18' W 130°21'0 0.0
2014-Jul-19 02:33N 54°18' W 130°21'1 0.7
2014-Jul-19 00:33N 54°16' W 130°22'1 1.4
2014-Jul-18 23:33N 54°18' W 130°21'0 0.0
2014-Jul-18 22:33N 54°18' W 130°21'0 0.0
2014-Jul-18 21:33N 54°18' W 130°21'0 0.0
2014-Jul-18 20:33N 54°18' W 130°21'0 0.0
2014-Jul-18 19:33N 54°18' W 130°21'0 0.0
2014-Jul-18 18:33N 54°18' W 130°21'0 0.0
2014-Jul-18 17:33N 54°18' W 130°21'0 0.0
2014-Jul-18 16:33N 54°18' W 130°21'0 0.0
2014-Jul-18 15:33N 54°18' W 130°21'0 0.0
2014-Jul-18 14:33N 54°18' W 130°21'0 0.0
2014-Jul-18 13:33N 54°18' W 130°21'0 0.0
2014-Jul-18 12:33N 54°18' W 130°21'0 0.0
2014-Jul-18 11:33N 54°18' W 130°21'0 0.0
2014-Jul-18 10:33N 54°18' W 130°21'0 0.0
2014-Jul-18 09:33N 54°18' W 130°21'0 0.0
2014-Jul-18 08:33N 54°18' W 130°21'0 0.0
2014-Jul-18 07:33N 54°18' W 130°21'0 0.0
2014-Jul-18 06:33N 54°18' W 130°21'0 0.0
2014-Jul-18 05:33N 54°18' W 130°21'0 0.0
2014-Jul-18 04:33N 54°18' W 130°21'0 0.0
2014-Jul-18 03:33N 54°18' W 130°21'0 0.0
2014-Jul-18 02:33N 54°18' W 130°21'0 0.0
2014-Jul-18 01:33N 54°18' W 130°21'0 0.0
2014-Jul-18 00:33N 54°18' W 130°21'0 0.0
2014-Jul-17 23:33N 54°18' W 130°21'0 0.0
2014-Jul-17 22:33N 54°18' W 130°21'0 0.0
2014-Jul-17 21:33N 54°18' W 130°21'0 0.0
2014-Jul-17 20:33N 54°18' W 130°21'0 0.0
2014-Jul-17 19:33N 54°18' W 130°21'0 0.0
2014-Jul-17 18:33N 54°18' W 130°21'0 0.0
2014-Jul-17 17:33N 54°18' W 130°21'0 0.0
2014-Jul-17 16:33N 54°18' W 130°21'0 0.0
2014-Jul-17 15:33N 54°18' W 130°21'0 0.0
2014-Jul-17 14:33N 54°18' W 130°21'0 0.0
2014-Jul-17 13:33N 54°18' W 130°21'0 0.0
2014-Jul-17 12:33N 54°18' W 130°21'0 0.0
2014-Jul-17 11:33N 54°18' W 130°21'0 0.0
2014-Jul-17 10:33N 54°18' W 130°21'0 0.0
2014-Jul-17 09:33N 54°18' W 130°21'0 0.0
2014-Jul-17 08:33N 54°18' W 130°21'0 0.0
2014-Jul-17 07:33N 54°18' W 130°21'0 0.0
2014-Jul-17 06:33N 54°18' W 130°21'0 0.0
2014-Jul-17 05:33N 54°18' W 130°21'0 0.0
2014-Jul-17 04:33N 54°18' W 130°21'4 2.0
2014-Jul-17 02:27N 54°13' W 130°21'2 0.6
2014-Jul-16 23:25N 54°15' W 130°21'2 2.7
2014-Jul-16 22:33N 54°18' W 130°21'0 0.0
2014-Jul-16 21:33N 54°18' W 130°21'0 0.0
2014-Jul-16 20:33N 54°18' W 130°21'0 0.0
2014-Jul-16 19:33N 54°18' W 130°21'0 0.0
2014-Jul-16 18:33N 54°18' W 130°21'0 0.0
2014-Jul-16 17:33N 54°18' W 130°21'0 0.0
2014-Jul-16 16:33N 54°18' W 130°21'0 0.0
2014-Jul-16 15:33N 54°18' W 130°21'0 0.0
2014-Jul-16 14:33N 54°18' W 130°21'0 0.0
2014-Jul-16 13:33N 54°18' W 130°21'0 0.0
2014-Jul-16 12:33N 54°18' W 130°21'0 0.0
2014-Jul-16 11:33N 54°18' W 130°21'0 0.0
2014-Jul-16 10:33N 54°18' W 130°21'0 0.0
2014-Jul-16 09:33N 54°18' W 130°21'0 0.0
2014-Jul-16 08:33N 54°18' W 130°21'0 0.0
2014-Jul-16 07:33N 54°18' W 130°21'0 0.0
2014-Jul-16 06:33N 54°18' W 130°21'0 0.0
2014-Jul-16 05:33N 54°18' W 130°21'0 0.0
2014-Jul-16 03:33N 54°18' W 130°21'0 0.0
2014-Jul-16 02:33N 54°18' W 130°21'0 0.0
2014-Jul-16 01:33N 54°18' W 130°21'0 0.0
2014-Jul-16 00:33N 54°18' W 130°21'0 0.0
2014-Jul-15 23:33N 54°18' W 130°21'0 0.0
2014-Jul-15 22:33N 54°18' W 130°21'0 0.0
2014-Jul-15 21:33N 54°18' W 130°21'0 0.0
2014-Jul-15 20:33N 54°18' W 130°21'0 0.0
2014-Jul-15 19:33N 54°18' W 130°21'0 0.0
2014-Jul-15 18:33N 54°18' W 130°21'0 0.0
2014-Jul-15 17:33N 54°18' W 130°21'0 0.0
2014-Jul-15 16:33N 54°18' W 130°21'0 0.0
2014-Jul-15 15:33N 54°18' W 130°21'0 0.0
2014-Jul-15 14:33N 54°18' W 130°21'0 0.0
2014-Jul-15 13:33N 54°18' W 130°21'4 3.4
2014-Jul-15 12:15N 54°13' W 130°24'4 5.2
2014-Jul-15 11:25N 54°12' W 130°31'8 2.0
2014-Jul-15 07:33N 54°18' W 130°21'0 0.0
2014-Jul-15 06:33N 54°18' W 130°21'2 1.6
2014-Jul-15 05:33N 54°16' W 130°22'1 0.2
2014-Jul-15 02:26N 54°15' W 130°21'2 2.5
2014-Jul-15 01:33N 54°18' W 130°21'0 0.0
2014-Jul-15 00:33N 54°18' W 130°21'0 0.0
2014-Jul-14 23:34N 54°18' W 130°21'0 0.0
2014-Jul-14 22:33N 54°18' W 130°21'0 0.0
2014-Jul-14 21:33N 54°18' W 130°21'0 0.0
2014-Jul-14 20:33N 54°18' W 130°21'0 0.0
2014-Jul-14 19:33N 54°18' W 130°21'0 0.0
2014-Jul-14 18:33N 54°18' W 130°21'0 0.0
2014-Jul-14 17:34N 54°18' W 130°21'0 0.1
2014-Jul-14 16:33N 54°18' W 130°21'2 1.9
2014-Jul-14 15:23N 54°15' W 130°21'2 2.2
2014-Jul-14 14:33N 54°17' W 130°22'0 0.3
2014-Jul-14 13:33N 54°18' W 130°21'0 0.0
2014-Jul-14 12:33N 54°18' W 130°21'0 0.0
2014-Jul-14 11:33N 54°18' W 130°21'0 0.0
2014-Jul-14 10:33N 54°18' W 130°21'0 0.0
2014-Jul-14 09:33N 54°18' W 130°21'0 0.0
2014-Jul-14 08:33N 54°18' W 130°21'0 0.0
2014-Jul-14 07:33N 54°18' W 130°21'0 0.0
2014-Jul-14 06:33N 54°18' W 130°21'0 0.0
2014-Jul-14 05:33N 54°18' W 130°21'0 0.0
2014-Jul-14 04:33N 54°18' W 130°21'0 0.0
2014-Jul-14 03:34N 54°18' W 130°21'0 0.0
2014-Jul-14 02:33N 54°18' W 130°21'0 0.0
2014-Jul-14 01:34N 54°18' W 130°21'0 0.0
2014-Jul-14 00:33N 54°18' W 130°21'0 0.0
2014-Jul-13 23:33N 54°18' W 130°21'0 0.0
2014-Jul-13 22:33N 54°18' W 130°21'0 0.0
2014-Jul-13 21:33N 54°18' W 130°21'0 0.0
2014-Jul-13 20:33N 54°18' W 130°21'0 0.0
2014-Jul-13 19:33N 54°18' W 130°21'0 0.0
2014-Jul-13 18:33N 54°18' W 130°21'0 0.0
2014-Jul-13 17:34N 54°18' W 130°21'1 0.6
2014-Jul-13 16:33N 54°17' W 130°22'0 0.2
2014-Jul-13 15:33N 54°17' W 130°22'0 0.3
2014-Jul-13 14:33N 54°18' W 130°22'0 0.2
2014-Jul-13 13:33N 54°18' W 130°21'0 0.0
2014-Jul-13 12:33N 54°18' W 130°21'0 0.0
2014-Jul-13 11:33N 54°18' W 130°21'0 0.0
2014-Jul-13 10:34N 54°18' W 130°21'0 0.0
2014-Jul-13 09:33N 54°18' W 130°21'0 0.0
2014-Jul-13 08:33N 54°18' W 130°21'0 0.0
2014-Jul-13 07:33N 54°18' W 130°21'0 0.0
2014-Jul-13 06:33N 54°18' W 130°21'0 0.0
2014-Jul-13 05:34N 54°18' W 130°21'0 0.0
2014-Jul-13 04:33N 54°18' W 130°21'0 0.0
2014-Jul-13 03:33N 54°18' W 130°21'0 0.0
2014-Jul-13 02:33N 54°18' W 130°21'0 0.0
2014-Jul-13 01:33N 54°18' W 130°21'0 0.0
2014-Jul-13 00:33N 54°18' W 130°21'0 0.0
2014-Jul-12 23:33N 54°18' W 130°21'0 0.0
2014-Jul-12 22:34N 54°18' W 130°21'  

Dump ship's entire track history